sensor_id;sensor_type;location;lat;lon;timestamp;pressure;altitude;pressure_sealevel;temperature;humidity
60089;BME280;45961;53.574;55.878;2024-02-26T00:00:53;102973.72;;;-22.59;66.83
60089;BME280;45961;53.574;55.878;2024-02-26T00:01:54;102970.03;;;-22.57;67.02
60089;BME280;45961;53.574;55.878;2024-02-26T00:02:54;102974.78;;;-22.49;67.03
60089;BME280;45961;53.574;55.878;2024-02-26T00:03:55;102974.06;;;-22.43;67.03
60089;BME280;45961;53.574;55.878;2024-02-26T00:04:59;102972.13;;;-22.54;66.43
60089;BME280;45961;53.574;55.878;2024-02-26T00:06:00;102979.97;;;-22.65;66.33
60089;BME280;45961;53.574;55.878;2024-02-26T00:07:01;102980.13;;;-22.73;65.97
60089;BME280;45961;53.574;55.878;2024-02-26T00:08:02;102982.66;;;-22.77;65.89
60089;BME280;45961;53.574;55.878;2024-02-26T00:09:03;102972.22;;;-22.76;66.03
60089;BME280;45961;53.574;55.878;2024-02-26T00:10:06;102980.03;;;-22.87;66.25
60089;BME280;45961;53.574;55.878;2024-02-26T00:11:07;102979.56;;;-22.90;65.85
60089;BME280;45961;53.574;55.878;2024-02-26T00:12:08;102980.34;;;-22.85;66.05
60089;BME280;45961;53.574;55.878;2024-02-26T00:13:09;102977.56;;;-22.83;65.80
60089;BME280;45961;53.574;55.878;2024-02-26T00:14:09;102977.09;;;-22.90;65.64
60089;BME280;45961;53.574;55.878;2024-02-26T00:15:10;102975.13;;;-23.01;65.89
60089;BME280;45961;53.574;55.878;2024-02-26T00:16:11;102973.25;;;-22.98;65.85
60089;BME280;45961;53.574;55.878;2024-02-26T00:17:11;102974.78;;;-22.98;65.84
60089;BME280;45961;53.574;55.878;2024-02-26T00:18:12;102975.88;;;-22.92;65.60
60089;BME280;45961;53.574;55.878;2024-02-26T00:19:13;102972.03;;;-23.00;65.70
60089;BME280;45961;53.574;55.878;2024-02-26T00:20:14;102970.84;;;-23.02;65.94
60089;BME280;45961;53.574;55.878;2024-02-26T00:21:17;102978.28;;;-23.06;65.74
60089;BME280;45961;53.574;55.878;2024-02-26T00:22:18;102973.44;;;-23.10;65.99
60089;BME280;45961;53.574;55.878;2024-02-26T00:23:19;102980.16;;;-23.09;66.04
60089;BME280;45961;53.574;55.878;2024-02-26T00:24:20;102976.81;;;-23.09;65.85
60089;BME280;45961;53.574;55.878;2024-02-26T00:25:20;102979.53;;;-23.08;65.75
60089;BME280;45961;53.574;55.878;2024-02-26T00:26:21;102972.47;;;-23.06;66.07
60089;BME280;45961;53.574;55.878;2024-02-26T00:27:22;102969.66;;;-23.04;65.88
60089;BME280;45961;53.574;55.878;2024-02-26T00:28:23;102979.56;;;-22.90;66.09
60089;BME280;45961;53.574;55.878;2024-02-26T00:29:25;102983.13;;;-22.88;66.01
60089;BME280;45961;53.574;55.878;2024-02-26T00:30:26;102983.25;;;-22.92;65.93
60089;BME280;45961;53.574;55.878;2024-02-26T00:31:26;102986.06;;;-22.94;65.88
60089;BME280;45961;53.574;55.878;2024-02-26T00:32:27;102978.41;;;-22.96;65.67
60089;BME280;45961;53.574;55.878;2024-02-26T00:33:28;102987.31;;;-22.97;65.98
60089;BME280;45961;53.574;55.878;2024-02-26T00:34:28;102979.88;;;-22.92;65.89
60089;BME280;45961;53.574;55.878;2024-02-26T00:35:29;102983.97;;;-22.97;65.59
60089;BME280;45961;53.574;55.878;2024-02-26T00:36:30;102984.94;;;-23.18;65.80
60089;BME280;45961;53.574;55.878;2024-02-26T00:37:31;102989.59;;;-23.24;65.47
60089;BME280;45961;53.574;55.878;2024-02-26T00:38:32;102992.06;;;-23.24;65.56
60089;BME280;45961;53.574;55.878;2024-02-26T00:39:33;102983.97;;;-23.15;65.97
60089;BME280;45961;53.574;55.878;2024-02-26T00:40:34;102975.31;;;-23.13;65.94
60089;BME280;45961;53.574;55.878;2024-02-26T00:41:38;102988.88;;;-23.15;65.93
60089;BME280;45961;53.574;55.878;2024-02-26T00:42:39;102990.81;;;-23.22;65.74
60089;BME280;45961;53.574;55.878;2024-02-26T00:43:41;102994.50;;;-23.24;65.88
60089;BME280;45961;53.574;55.878;2024-02-26T00:44:43;102989.09;;;-23.31;65.72
60089;BME280;45961;53.574;55.878;2024-02-26T00:45:43;102993.25;;;-23.22;65.64
60089;BME280;45961;53.574;55.878;2024-02-26T00:46:44;102991.66;;;-23.17;66.04
60089;BME280;45961;53.574;55.878;2024-02-26T00:47:45;102995.84;;;-23.12;65.75
60089;BME280;45961;53.574;55.878;2024-02-26T00:48:47;102996.69;;;-23.08;66.05
60089;BME280;45961;53.574;55.878;2024-02-26T00:49:48;102997.06;;;-23.10;65.75
60089;BME280;45961;53.574;55.878;2024-02-26T00:50:49;102994.09;;;-23.17;66.15
60089;BME280;45961;53.574;55.878;2024-02-26T00:51:50;102998.66;;;-23.15;66.24
60089;BME280;45961;53.574;55.878;2024-02-26T00:52:50;102994.88;;;-23.09;66.27
60089;BME280;45961;53.574;55.878;2024-02-26T00:53:51;102992.69;;;-23.07;66.30
60089;BME280;45961;53.574;55.878;2024-02-26T00:54:52;102993.06;;;-23.10;66.32
60089;BME280;45961;53.574;55.878;2024-02-26T00:55:52;103001.97;;;-23.10;66.23
60089;BME280;45961;53.574;55.878;2024-02-26T00:56:53;102998.22;;;-23.26;66.00
60089;BME280;45961;53.574;55.878;2024-02-26T00:57:54;102993.94;;;-23.27;66.22
60089;BME280;45961;53.574;55.878;2024-02-26T00:58:55;102994.13;;;-23.39;66.15
60089;BME280;45961;53.574;55.878;2024-02-26T00:59:55;102997.25;;;-23.45;65.90
60089;BME280;45961;53.574;55.878;2024-02-26T01:00:57;102997.38;;;-23.53;66.02
60089;BME280;45961;53.574;55.878;2024-02-26T01:01:58;103000.16;;;-23.55;66.04
60089;BME280;45961;53.574;55.878;2024-02-26T01:03:00;102990.72;;;-23.58;66.02
60089;BME280;45961;53.574;55.878;2024-02-26T01:04:01;102994.09;;;-23.57;66.05
60089;BME280;45961;53.574;55.878;2024-02-26T01:05:01;102992.53;;;-23.57;65.92
60089;BME280;45961;53.574;55.878;2024-02-26T01:06:03;102987.53;;;-23.49;65.89
60089;BME280;45961;53.574;55.878;2024-02-26T01:07:04;102984.44;;;-23.48;65.91
60089;BME280;45961;53.574;55.878;2024-02-26T01:08:05;102982.50;;;-23.40;66.08
60089;BME280;45961;53.574;55.878;2024-02-26T01:09:05;102986.31;;;-23.29;66.09
60089;BME280;45961;53.574;55.878;2024-02-26T01:10:06;102984.75;;;-23.28;66.09
60089;BME280;45961;53.574;55.878;2024-02-26T01:11:07;102985.78;;;-23.36;65.77
60089;BME280;45961;53.574;55.878;2024-02-26T01:12:08;102998.81;;;-23.45;65.99
60089;BME280;45961;53.574;55.878;2024-02-26T01:13:09;102995.19;;;-23.47;65.72
60089;BME280;45961;53.574;55.878;2024-02-26T01:14:09;102993.84;;;-23.41;66.04
60089;BME280;45961;53.574;55.878;2024-02-26T01:15:10;102985.59;;;-23.41;66.05
60089;BME280;45961;53.574;55.878;2024-02-26T01:16:11;102997.13;;;-23.54;65.92
60089;BME280;45961;53.574;55.878;2024-02-26T01:17:12;102989.19;;;-23.57;66.00
60089;BME280;45961;53.574;55.878;2024-02-26T01:18:13;102986.56;;;-23.45;65.98
60089;BME280;45961;53.574;55.878;2024-02-26T01:19:13;102986.50;;;-23.41;66.07
60089;BME280;45961;53.574;55.878;2024-02-26T01:20:14;102992.88;;;-23.37;65.99
60089;BME280;45961;53.574;55.878;2024-02-26T01:21:15;102992.75;;;-23.29;65.93
60089;BME280;45961;53.574;55.878;2024-02-26T01:22:16;102992.53;;;-23.35;66.12
60089;BME280;45961;53.574;55.878;2024-02-26T01:23:17;102995.25;;;-23.33;66.04
60089;BME280;45961;53.574;55.878;2024-02-26T01:24:17;103008.28;;;-23.42;65.98
60089;BME280;45961;53.574;55.878;2024-02-26T01:25:18;103000.41;;;-23.50;66.17
60089;BME280;45961;53.574;55.878;2024-02-26T01:26:19;103008.28;;;-23.42;66.15
60089;BME280;45961;53.574;55.878;2024-02-26T01:27:20;102997.69;;;-23.51;66.04
60089;BME280;45961;53.574;55.878;2024-02-26T01:28:21;103006.22;;;-23.49;65.68
60089;BME280;45961;53.574;55.878;2024-02-26T01:29:21;103001.94;;;-23.50;65.69
60089;BME280;45961;53.574;55.878;2024-02-26T01:30:22;103008.94;;;-23.48;65.41
60089;BME280;45961;53.574;55.878;2024-02-26T01:31:23;102996.41;;;-23.49;65.43
60089;BME280;45961;53.574;55.878;2024-02-26T01:32:24;102992.88;;;-23.59;65.50
60089;BME280;45961;53.574;55.878;2024-02-26T01:33:25;102999.13;;;-23.48;65.64
60089;BME280;45961;53.574;55.878;2024-02-26T01:34:26;102998.47;;;-23.42;65.41
60089;BME280;45961;53.574;55.878;2024-02-26T01:35:27;102992.28;;;-23.58;65.63
60089;BME280;45961;53.574;55.878;2024-02-26T01:36:28;103002.41;;;-23.61;65.14
60089;BME280;45961;53.574;55.878;2024-02-26T01:37:29;102994.25;;;-23.65;65.18
60089;BME280;45961;53.574;55.878;2024-02-26T01:38:32;103000.09;;;-23.69;65.16
60089;BME280;45961;53.574;55.878;2024-02-26T01:39:33;102991.63;;;-23.75;65.29
60089;BME280;45961;53.574;55.878;2024-02-26T01:40:34;102994.88;;;-23.66;65.23
60089;BME280;45961;53.574;55.878;2024-02-26T01:41:35;102987.22;;;-23.68;65.30
60089;BME280;45961;53.574;55.878;2024-02-26T01:42:38;102985.41;;;-23.69;65.57
60089;BME280;45961;53.574;55.878;2024-02-26T01:43:39;102988.50;;;-23.70;65.24
60089;BME280;45961;53.574;55.878;2024-02-26T01:44:39;102984.69;;;-23.64;65.54
60089;BME280;45961;53.574;55.878;2024-02-26T01:45:40;102993.50;;;-23.60;65.48
60089;BME280;45961;53.574;55.878;2024-02-26T01:46:41;102988.66;;;-23.64;65.54
60089;BME280;45961;53.574;55.878;2024-02-26T01:47:42;102987.31;;;-23.54;65.89
60089;BME280;45961;53.574;55.878;2024-02-26T01:48:43;102987.47;;;-23.45;65.94
60089;BME280;45961;53.574;55.878;2024-02-26T01:49:45;102985.00;;;-23.45;65.88
60089;BME280;45961;53.574;55.878;2024-02-26T01:50:46;102996.63;;;-23.43;65.88
60089;BME280;45961;53.574;55.878;2024-02-26T01:51:47;103001.91;;;-23.46;65.66
60089;BME280;45961;53.574;55.878;2024-02-26T01:52:49;102999.78;;;-23.49;65.74
60089;BME280;45961;53.574;55.878;2024-02-26T01:53:50;103004.72;;;-23.53;65.51
60089;BME280;45961;53.574;55.878;2024-02-26T01:54:51;102998.72;;;-23.59;65.06
60089;BME280;45961;53.574;55.878;2024-02-26T01:55:54;103002.91;;;-23.54;65.36
60089;BME280;45961;53.574;55.878;2024-02-26T01:56:55;102996.03;;;-23.42;65.24
60089;BME280;45961;53.574;55.878;2024-02-26T01:57:56;103009.47;;;-23.62;64.73
60089;BME280;45961;53.574;55.878;2024-02-26T01:58:58;103003.47;;;-23.68;64.98
60089;BME280;45961;53.574;55.878;2024-02-26T01:59:59;103006.81;;;-23.68;64.66
60089;BME280;45961;53.574;55.878;2024-02-26T02:01:01;103009.13;;;-23.60;64.87
60089;BME280;45961;53.574;55.878;2024-02-26T02:02:03;103010.31;;;-23.58;64.97
60089;BME280;45961;53.574;55.878;2024-02-26T02:03:06;103002.63;;;-23.55;64.96
60089;BME280;45961;53.574;55.878;2024-02-26T02:04:06;103009.63;;;-23.53;65.07
60089;BME280;45961;53.574;55.878;2024-02-26T02:05:08;103002.06;;;-23.58;65.00
60089;BME280;45961;53.574;55.878;2024-02-26T02:06:09;103012.09;;;-23.53;64.96
60089;BME280;45961;53.574;55.878;2024-02-26T02:07:10;103012.13;;;-23.57;65.08
60089;BME280;45961;53.574;55.878;2024-02-26T02:08:11;103012.13;;;-23.57;64.95
60089;BME280;45961;53.574;55.878;2024-02-26T02:09:13;103005.38;;;-23.54;64.97
60089;BME280;45961;53.574;55.878;2024-02-26T02:10:14;103001.66;;;-23.52;64.76
60089;BME280;45961;53.574;55.878;2024-02-26T02:11:16;103005.69;;;-23.74;64.65
60089;BME280;45961;53.574;55.878;2024-02-26T02:12:17;103009.31;;;-23.72;64.93
60089;BME280;45961;53.574;55.878;2024-02-26T02:13:19;103003.88;;;-23.75;65.19
60089;BME280;45961;53.574;55.878;2024-02-26T02:14:19;103001.47;;;-23.79;65.09
60089;BME280;45961;53.574;55.878;2024-02-26T02:15:20;103000.53;;;-23.80;65.58
60089;BME280;45961;53.574;55.878;2024-02-26T02:16:22;103002.59;;;-23.73;65.68
60089;BME280;45961;53.574;55.878;2024-02-26T02:17:22;103005.13;;;-23.77;65.38
60089;BME280;45961;53.574;55.878;2024-02-26T02:18:23;103004.00;;;-23.83;65.52
60089;BME280;45961;53.574;55.878;2024-02-26T02:19:24;103001.75;;;-23.78;65.81
60089;BME280;45961;53.574;55.878;2024-02-26T02:20:26;103005.97;;;-23.73;65.56
60089;BME280;45961;53.574;55.878;2024-02-26T02:21:28;103003.56;;;-23.77;65.70
60089;BME280;45961;53.574;55.878;2024-02-26T02:22:28;103005.44;;;-23.80;65.70
60089;BME280;45961;53.574;55.878;2024-02-26T02:23:29;103008.25;;;-23.82;65.62
60089;BME280;45961;53.574;55.878;2024-02-26T02:24:30;103007.03;;;-23.84;65.53
60089;BME280;45961;53.574;55.878;2024-02-26T02:25:31;103013.47;;;-23.85;65.64
60089;BME280;45961;53.574;55.878;2024-02-26T02:26:32;103004.31;;;-23.86;65.89
60089;BME280;45961;53.574;55.878;2024-02-26T02:27:32;103004.53;;;-23.80;65.69
60089;BME280;45961;53.574;55.878;2024-02-26T02:28:34;103003.63;;;-23.81;65.76
60089;BME280;45961;53.574;55.878;2024-02-26T02:29:34;103002.06;;;-23.80;65.73
60089;BME280;45961;53.574;55.878;2024-02-26T02:30:35;103000.53;;;-23.80;65.93
60089;BME280;45961;53.574;55.878;2024-02-26T02:31:37;103010.53;;;-23.70;65.73
60089;BME280;45961;53.574;55.878;2024-02-26T02:32:39;103005.56;;;-23.66;65.94
60089;BME280;45961;53.574;55.878;2024-02-26T02:33:41;103007.94;;;-23.62;65.91
60089;BME280;45961;53.574;55.878;2024-02-26T02:34:41;103010.38;;;-23.62;65.85
60089;BME280;45961;53.574;55.878;2024-02-26T02:35:43;103011.09;;;-23.67;65.78
60089;BME280;45961;53.574;55.878;2024-02-26T02:36:53;103012.97;;;-23.70;65.43
60089;BME280;45961;53.574;55.878;2024-02-26T02:37:57;103014.91;;;-23.77;65.36
60089;BME280;45961;53.574;55.878;2024-02-26T02:38:59;103015.81;;;-23.77;65.34
60089;BME280;45961;53.574;55.878;2024-02-26T02:40:00;103018.63;;;-23.79;64.81
60089;BME280;45961;53.574;55.878;2024-02-26T02:41:00;103018.94;;;-23.82;64.72
60089;BME280;45961;53.574;55.878;2024-02-26T02:42:02;103017.41;;;-23.81;64.49
60089;BME280;45961;53.574;55.878;2024-02-26T02:43:02;103019.22;;;-23.80;64.52
60089;BME280;45961;53.574;55.878;2024-02-26T02:44:05;103017.34;;;-23.77;64.57
60089;BME280;45961;53.574;55.878;2024-02-26T02:45:05;103014.91;;;-23.77;64.61
60089;BME280;45961;53.574;55.878;2024-02-26T02:46:06;103017.88;;;-23.70;64.93
60089;BME280;45961;53.574;55.878;2024-02-26T02:47:07;103008.19;;;-23.78;65.25
60089;BME280;45961;53.574;55.878;2024-02-26T02:48:08;103013.19;;;-23.86;65.23
60089;BME280;45961;53.574;55.878;2024-02-26T02:49:09;103016.81;;;-23.84;65.01
60089;BME280;45961;53.574;55.878;2024-02-26T02:50:10;103001.53;;;-23.83;65.05
60089;BME280;45961;53.574;55.878;2024-02-26T02:51:11;103004.91;;;-23.83;65.34
60089;BME280;45961;53.574;55.878;2024-02-26T02:52:12;102997.81;;;-23.81;65.28
60089;BME280;45961;53.574;55.878;2024-02-26T02:53:13;102996.28;;;-23.81;65.33
60089;BME280;45961;53.574;55.878;2024-02-26T02:54:14;102997.66;;;-23.69;65.54
60089;BME280;45961;53.574;55.878;2024-02-26T02:55:15;102999.19;;;-23.69;65.68
60089;BME280;45961;53.574;55.878;2024-02-26T02:56:16;102990.19;;;-23.83;65.46
60089;BME280;45961;53.574;55.878;2024-02-26T02:57:16;102994.13;;;-23.79;65.83
60089;BME280;45961;53.574;55.878;2024-02-26T02:58:17;102998.34;;;-23.74;65.91
60089;BME280;45961;53.574;55.878;2024-02-26T02:59:18;102991.84;;;-23.69;65.83
60089;BME280;45961;53.574;55.878;2024-02-26T03:00:19;102997.50;;;-23.79;66.02
60089;BME280;45961;53.574;55.878;2024-02-26T03:01:20;102997.06;;;-23.72;65.60
60089;BME280;45961;53.574;55.878;2024-02-26T03:02:20;102991.78;;;-23.65;66.00
60089;BME280;45961;53.574;55.878;2024-02-26T03:03:21;102992.53;;;-23.57;66.06
60089;BME280;45961;53.574;55.878;2024-02-26T03:04:24;102988.84;;;-23.55;66.17
60089;BME280;45961;53.574;55.878;2024-02-26T03:05:25;102987.53;;;-23.49;66.19
60089;BME280;45961;53.574;55.878;2024-02-26T03:06:26;102984.22;;;-23.53;65.88
60089;BME280;45961;53.574;55.878;2024-02-26T03:07:28;102990.59;;;-23.50;65.72
60089;BME280;45961;53.574;55.878;2024-02-26T03:08:29;102989.06;;;-23.49;65.42
60089;BME280;45961;53.574;55.878;2024-02-26T03:09:30;102987.66;;;-23.57;65.31
60089;BME280;45961;53.574;55.878;2024-02-26T03:10:31;102983.06;;;-23.59;65.42
60089;BME280;45961;53.574;55.878;2024-02-26T03:11:31;102995.97;;;-23.60;65.36
60089;BME280;45961;53.574;55.878;2024-02-26T03:12:33;102995.63;;;-23.58;65.18
60089;BME280;45961;53.574;55.878;2024-02-26T03:13:34;102991.91;;;-23.56;65.19
60089;BME280;45961;53.574;55.878;2024-02-26T03:14:35;102996.75;;;-23.52;65.29
60089;BME280;45961;53.574;55.878;2024-02-26T03:15:35;102990.38;;;-23.55;65.26
60089;BME280;45961;53.574;55.878;2024-02-26T03:16:36;102988.34;;;-23.62;65.44
60089;BME280;45961;53.574;55.878;2024-02-26T03:17:37;102989.72;;;-23.72;65.09
60089;BME280;45961;53.574;55.878;2024-02-26T03:18:38;102986.09;;;-23.74;65.15
60089;BME280;45961;53.574;55.878;2024-02-26T03:19:39;102987.00;;;-23.74;65.40
60089;BME280;45961;53.574;55.878;2024-02-26T03:20:40;102986.09;;;-23.74;65.40
60089;BME280;45961;53.574;55.878;2024-02-26T03:21:41;102999.31;;;-23.78;65.45
60089;BME280;45961;53.574;55.878;2024-02-26T03:22:41;102992.47;;;-23.71;65.51
60089;BME280;45961;53.574;55.878;2024-02-26T03:23:42;102996.41;;;-23.67;65.90
60089;BME280;45961;53.574;55.878;2024-02-26T03:24:43;102994.41;;;-23.60;65.71
60089;BME280;45961;53.574;55.878;2024-02-26T03:25:44;102996.25;;;-23.59;66.03
60089;BME280;45961;53.574;55.878;2024-02-26T03:26:46;102992.94;;;-23.63;65.98
60089;BME280;45961;53.574;55.878;2024-02-26T03:27:47;103000.91;;;-23.64;65.84
60089;BME280;45961;53.574;55.878;2024-02-26T03:28:48;102985.78;;;-23.54;65.76
60089;BME280;45961;53.574;55.878;2024-02-26T03:29:49;102997.25;;;-23.45;65.77
60089;BME280;45961;53.574;55.878;2024-02-26T03:30:50;102998.47;;;-23.42;66.08
60089;BME280;45961;53.574;55.878;2024-02-26T03:31:50;102996.28;;;-23.41;66.17
60089;BME280;45961;53.574;55.878;2024-02-26T03:32:51;102996.09;;;-23.47;66.11
60089;BME280;45961;53.574;55.878;2024-02-26T03:33:52;102993.34;;;-23.48;66.06
60089;BME280;45961;53.574;55.878;2024-02-26T03:34:53;102992.03;;;-23.42;66.07
60089;BME280;45961;53.574;55.878;2024-02-26T03:35:56;102986.31;;;-23.29;66.46
60089;BME280;45961;53.574;55.878;2024-02-26T03:37:00;102983.84;;;-23.29;66.45
60089;BME280;45961;53.574;55.878;2024-02-26T03:38:01;102992.53;;;-23.35;66.02
60089;BME280;45961;53.574;55.878;2024-02-26T03:39:03;102987.28;;;-23.32;66.19
60089;BME280;45961;53.574;55.878;2024-02-26T03:40:08;102989.66;;;-23.28;66.38
60089;BME280;45961;53.574;55.878;2024-02-26T03:41:09;102987.44;;;-23.23;66.23
60089;BME280;45961;53.574;55.878;2024-02-26T03:42:10;102983.84;;;-23.29;66.26
60089;BME280;45961;53.574;55.878;2024-02-26T03:43:11;102989.97;;;-23.27;66.37
60089;BME280;45961;53.574;55.878;2024-02-26T03:44:13;102988.63;;;-23.21;66.33
60089;BME280;45961;53.574;55.878;2024-02-26T03:45:14;102985.97;;;-23.26;66.08
60089;BME280;45961;53.574;55.878;2024-02-26T03:46:15;102991.47;;;-23.27;66.06
60089;BME280;45961;53.574;55.878;2024-02-26T03:47:15;102994.13;;;-23.39;65.96
60089;BME280;45961;53.574;55.878;2024-02-26T03:48:16;102984.75;;;-23.28;66.13
60089;BME280;45961;53.574;55.878;2024-02-26T03:49:17;102995.31;;;-23.37;66.02
60089;BME280;45961;53.574;55.878;2024-02-26T03:50:18;102993.00;;;-23.46;65.88
60089;BME280;45961;53.574;55.878;2024-02-26T03:51:19;103003.00;;;-23.40;65.88
60089;BME280;45961;53.574;55.878;2024-02-26T03:52:20;102998.34;;;-23.34;66.07
60089;BME280;45961;53.574;55.878;2024-02-26T03:53:20;102992.19;;;-23.32;65.97
60089;BME280;45961;53.574;55.878;2024-02-26T03:54:21;102994.88;;;-23.27;65.95
60089;BME280;45961;53.574;55.878;2024-02-26T03:55:22;102995.91;;;-23.16;65.71
60089;BME280;45961;53.574;55.878;2024-02-26T03:56:25;102990.59;;;-23.10;66.09
60089;BME280;45961;53.574;55.878;2024-02-26T03:57:26;102991.59;;;-23.13;65.70
60089;BME280;45961;53.574;55.878;2024-02-26T03:58:27;102998.28;;;-23.12;65.92
60089;BME280;45961;53.574;55.878;2024-02-26T03:59:28;102989.97;;;-23.09;65.58
60089;BME280;45961;53.574;55.878;2024-02-26T04:00:28;102988.16;;;-23.10;65.86
60089;BME280;45961;53.574;55.878;2024-02-26T04:01:30;102989.97;;;-23.09;65.88
60089;BME280;45961;53.574;55.878;2024-02-26T04:02:31;102989.25;;;-23.04;65.95
60089;BME280;45961;53.574;55.878;2024-02-26T04:03:32;102984.78;;;-22.92;65.95
60089;BME280;45961;53.574;55.878;2024-02-26T04:04:35;102988.94;;;-22.87;65.68
60089;BME280;45961;53.574;55.878;2024-02-26T04:05:36;102988.88;;;-22.83;65.83
60089;BME280;45961;53.574;55.878;2024-02-26T04:06:37;102990.16;;;-22.85;65.61
60089;BME280;45961;53.574;55.878;2024-02-26T04:07:38;102988.81;;;-22.79;65.43
60089;BME280;45961;53.574;55.878;2024-02-26T04:08:39;102983.22;;;-22.74;65.65
60089;BME280;45961;53.574;55.878;2024-02-26T04:09:40;102974.63;;;-22.27;65.42
60089;BME280;45961;53.574;55.878;2024-02-26T04:10:41;102963.09;;;-21.35;65.41
60089;BME280;45961;53.574;55.878;2024-02-26T04:11:41;102936.88;;;-20.17;64.68
60089;BME280;45961;53.574;55.878;2024-02-26T04:12:45;102916.28;;;-19.11;62.80
60089;BME280;45961;53.574;55.878;2024-02-26T04:13:46;102895.97;;;-18.35;61.11
60089;BME280;45961;53.574;55.878;2024-02-26T04:14:49;102877.25;;;-17.53;59.24
60089;BME280;45961;53.574;55.878;2024-02-26T04:15:50;102868.09;;;-16.97;57.38
60089;BME280;45961;53.574;55.878;2024-02-26T04:16:51;102839.84;;;-16.40;55.33
60089;BME280;45961;53.574;55.878;2024-02-26T04:17:54;102824.19;;;-16.29;53.05
60089;BME280;45961;53.574;55.878;2024-02-26T04:18:55;102813.97;;;-16.10;51.42
60089;BME280;45961;53.574;55.878;2024-02-26T04:19:56;102794.16;;;-15.72;50.56
60089;BME280;45961;53.574;55.878;2024-02-26T04:20:56;102786.88;;;-15.33;49.73
60089;BME280;45961;53.574;55.878;2024-02-26T04:21:57;102768.69;;;-15.11;48.91
60089;BME280;45961;53.574;55.878;2024-02-26T04:22:58;102763.53;;;-15.07;47.77
60089;BME280;45961;53.574;55.878;2024-02-26T04:23:59;102752.16;;;-15.22;47.48
60089;BME280;45961;53.574;55.878;2024-02-26T04:25:02;102742.72;;;-15.19;46.98
60089;BME280;45961;53.574;55.878;2024-02-26T04:26:04;102739.72;;;-15.33;46.44
60089;BME280;45961;53.574;55.878;2024-02-26T04:27:05;102738.34;;;-15.36;46.14
60089;BME280;45961;53.574;55.878;2024-02-26T04:28:07;102730.50;;;-15.11;46.04
60089;BME280;45961;53.574;55.878;2024-02-26T04:29:07;102713.84;;;-15.01;46.43
60089;BME280;45961;53.574;55.878;2024-02-26T04:30:08;102711.81;;;-14.93;46.02
60089;BME280;45961;53.574;55.878;2024-02-26T04:31:09;102726.81;;;-15.41;46.02
60089;BME280;45961;53.574;55.878;2024-02-26T04:32:13;102736.41;;;-16.41;46.47
60089;BME280;45961;53.574;55.878;2024-02-26T04:33:14;102751.06;;;-17.16;48.08
60089;BME280;45961;53.574;55.878;2024-02-26T04:34:15;102757.88;;;-17.67;49.26
60089;BME280;45961;53.574;55.878;2024-02-26T04:35:15;102760.97;;;-17.89;50.50
60089;BME280;45961;53.574;55.878;2024-02-26T04:36:17;102766.09;;;-18.24;51.43
60089;BME280;45961;53.574;55.878;2024-02-26T04:37:17;102773.97;;;-18.51;52.62
60089;BME280;45961;53.574;55.878;2024-02-26T04:38:18;102782.97;;;-18.61;53.50
60089;BME280;45961;53.574;55.878;2024-02-26T04:39:19;102780.84;;;-18.70;54.50
60089;BME280;45961;53.574;55.878;2024-02-26T04:40:20;102786.66;;;-18.84;54.98
60089;BME280;45961;53.574;55.878;2024-02-26T04:41:21;102792.06;;;-18.72;55.58
60089;BME280;45961;53.574;55.878;2024-02-26T04:42:22;102788.84;;;-18.61;56.33
60089;BME280;45961;53.574;55.878;2024-02-26T04:43:22;102799.72;;;-18.55;56.12
60089;BME280;45961;53.574;55.878;2024-02-26T04:44:23;102799.50;;;-18.81;56.43
60089;BME280;45961;53.574;55.878;2024-02-26T04:45:24;102796.94;;;-18.87;56.50
60089;BME280;45961;53.574;55.878;2024-02-26T04:46:25;102803.22;;;-18.99;56.49
60089;BME280;45961;53.574;55.878;2024-02-26T04:47:26;102806.22;;;-19.05;56.82
60089;BME280;45961;53.574;55.878;2024-02-26T04:48:27;102805.72;;;-19.08;56.87
60089;BME280;45961;53.574;55.878;2024-02-26T04:49:28;102807.41;;;-19.03;57.15
60089;BME280;45961;53.574;55.878;2024-02-26T04:50:28;102814.19;;;-19.12;57.53
60089;BME280;45961;53.574;55.878;2024-02-26T04:51:29;102814.44;;;-19.10;57.71
60089;BME280;45961;53.574;55.878;2024-02-26T04:52:30;102809.75;;;-19.09;57.63
60089;BME280;45961;53.574;55.878;2024-02-26T04:53:31;102815.84;;;-19.07;57.56
60089;BME280;45961;53.574;55.878;2024-02-26T04:54:32;102817.50;;;-18.92;57.62
60089;BME280;45961;53.574;55.878;2024-02-26T04:55:33;102817.25;;;-19.03;57.77
60089;BME280;45961;53.574;55.878;2024-02-26T04:56:33;102822.72;;;-19.00;57.68
60089;BME280;45961;53.574;55.878;2024-02-26T04:57:34;102824.38;;;-18.95;57.63
60089;BME280;45961;53.574;55.878;2024-02-26T04:58:36;102824.63;;;-18.94;57.64
60089;BME280;45961;53.574;55.878;2024-02-26T04:59:36;102823.63;;;-19.00;57.73
60089;BME280;45961;53.574;55.878;2024-02-26T05:00:37;102828.72;;;-19.04;57.76
60089;BME280;45961;53.574;55.878;2024-02-26T05:01:39;102821.53;;;-18.92;57.65
60089;BME280;45961;53.574;55.878;2024-02-26T05:02:40;102818.31;;;-18.72;57.83
60089;BME280;45961;53.574;55.878;2024-02-26T05:03:40;102825.22;;;-18.75;57.60
60089;BME280;45961;53.574;55.878;2024-02-26T05:04:41;102824.84;;;-18.82;57.14
60089;BME280;45961;53.574;55.878;2024-02-26T05:05:43;102825.44;;;-18.74;57.15
60089;BME280;45961;53.574;55.878;2024-02-26T05:06:44;102830.59;;;-18.87;56.82
60089;BME280;45961;53.574;55.878;2024-02-26T05:07:44;102829.25;;;-18.85;56.73
60089;BME280;45961;53.574;55.878;2024-02-26T05:08:46;102826.66;;;-18.81;56.51
60089;BME280;45961;53.574;55.878;2024-02-26T05:09:46;102824.84;;;-18.82;56.59
60089;BME280;45961;53.574;55.878;2024-02-26T05:10:50;102828.88;;;-18.83;56.61
60089;BME280;45961;53.574;55.878;2024-02-26T05:11:50;102824.84;;;-18.82;56.78